sensor_id;sensor_type;location;lat;lon;timestamp;P1;durP1;ratioP1;P2;durP2;ratioP2
22417;SDS011;11376;50.932;4.442;2023-06-04T00:01:53;7.47;;;1.00;;
22417;SDS011;11376;50.932;4.442;2023-06-04T00:04:19;4.55;;;0.90;;
22417;SDS011;11376;50.932;4.442;2023-06-04T00:06:44;6.68;;;0.88;;
22417;SDS011;11376;50.932;4.442;2023-06-04T00:09:10;2.33;;;0.80;;
22417;SDS011;11376;50.932;4.442;2023-06-04T00:11:36;4.20;;;0.87;;
22417;SDS011;11376;50.932;4.442;2023-06-04T00:14:02;2.37;;;1.00;;
22417;SDS011;11376;50.932;4.442;2023-06-04T00:16:28;5.17;;;1.10;;
22417;SDS011;11376;50.932;4.442;2023-06-04T00:18:54;2.50;;;0.83;;
22417;SDS011;11376;50.932;4.442;2023-06-04T00:21:19;2.07;;;0.70;;
22417;SDS011;11376;50.932;4.442;2023-06-04T00:23:45;6.20;;;1.00;;
22417;SDS011;11376;50.932;4.442;2023-06-04T00:26:11;8.15;;;1.20;;
22417;SDS011;11376;50.932;4.442;2023-06-04T00:28:36;6.00;;;0.90;;
22417;SDS011;11376;50.932;4.442;2023-06-04T00:31:04;2.87;;;0.90;;
22417;SDS011;11376;50.932;4.442;2023-06-04T00:33:30;4.30;;;1.40;;
22417;SDS011;11376;50.932;4.442;2023-06-04T00:35:56;5.93;;;0.93;;
22417;SDS011;11376;50.932;4.442;2023-06-04T00:38:22;4.47;;;1.30;;
22417;SDS011;11376;50.932;4.442;2023-06-04T00:40:48;3.93;;;1.00;;
22417;SDS011;11376;50.932;4.442;2023-06-04T00:43:13;4.60;;;1.07;;
22417;SDS011;11376;50.932;4.442;2023-06-04T00:45:39;6.33;;;1.10;;
22417;SDS011;11376;50.932;4.442;2023-06-04T00:48:05;5.43;;;1.50;;
22417;SDS011;11376;50.932;4.442;2023-06-04T00:50:31;4.90;;;1.23;;
22417;SDS011;11376;50.932;4.442;2023-06-04T00:52:58;4.70;;;1.20;;
22417;SDS011;11376;50.932;4.442;2023-06-04T00:55:24;4.07;;;1.20;;
22417;SDS011;11376;50.932;4.442;2023-06-04T00:57:50;2.43;;;1.00;;
22417;SDS011;11376;50.932;4.442;2023-06-04T01:00:16;3.73;;;1.10;;
22417;SDS011;11376;50.932;4.442;2023-06-04T01:02:43;3.20;;;1.30;;
22417;SDS011;11376;50.932;4.442;2023-06-04T01:08:09;8.43;;;1.37;;
22417;SDS011;11376;50.932;4.442;2023-06-04T01:10:36;5.53;;;1.30;;
22417;SDS011;11376;50.932;4.442;2023-06-04T01:13:02;2.90;;;1.10;;
22417;SDS011;11376;50.932;4.442;2023-06-04T01:15:27;6.20;;;1.60;;
22417;SDS011;11376;50.932;4.442;2023-06-04T01:17:54;3.70;;;1.10;;
22417;SDS011;11376;50.932;4.442;2023-06-04T01:25:38;6.00;;;1.40;;
22417;SDS011;11376;50.932;4.442;2023-06-04T01:28:09;6.90;;;1.50;;
22417;SDS011;11376;50.932;4.442;2023-06-04T01:30:37;2.70;;;1.20;;
22417;SDS011;11376;50.932;4.442;2023-06-04T01:33:14;5.33;;;1.57;;
22417;SDS011;11376;50.932;4.442;2023-06-04T01:35:42;4.20;;;1.20;;
22417;SDS011;11376;50.932;4.442;2023-06-04T01:38:08;5.17;;;1.27;;
22417;SDS011;11376;50.932;4.442;2023-06-04T01:40:34;2.73;;;1.30;;
22417;SDS011;11376;50.932;4.442;2023-06-04T01:43:00;4.67;;;1.00;;
22417;SDS011;11376;50.932;4.442;2023-06-04T01:45:26;4.90;;;1.20;;
22417;SDS011;11376;50.932;4.442;2023-06-04T01:47:53;4.83;;;1.20;;
22417;SDS011;11376;50.932;4.442;2023-06-04T01:50:19;3.53;;;1.10;;
22417;SDS011;11376;50.932;4.442;2023-06-04T01:52:45;5.00;;;1.60;;
22417;SDS011;11376;50.932;4.442;2023-06-04T01:55:12;3.43;;;1.20;;
22417;SDS011;11376;50.932;4.442;2023-06-04T01:57:39;2.80;;;1.17;;
22417;SDS011;11376;50.932;4.442;2023-06-04T02:00:06;3.30;;;1.30;;
22417;SDS011;11376;50.932;4.442;2023-06-04T02:02:35;5.27;;;1.30;;
22417;SDS011;11376;50.932;4.442;2023-06-04T02:05:05;5.73;;;1.50;;
22417;SDS011;11376;50.932;4.442;2023-06-04T02:07:37;3.53;;;1.17;;
22417;SDS011;11376;50.932;4.442;2023-06-04T02:10:07;5.03;;;1.20;;
22417;SDS011;11376;50.932;4.442;2023-06-04T02:12:38;4.10;;;1.40;;
22417;SDS011;11376;50.932;4.442;2023-06-04T02:15:05;2.93;;;1.30;;
22417;SDS011;11376;50.932;4.442;2023-06-04T02:17:32;5.70;;;1.50;;
22417;SDS011;11376;50.932;4.442;2023-06-04T02:20:02;6.50;;;1.40;;
22417;SDS011;11376;50.932;4.442;2023-06-04T02:22:34;3.40;;;1.37;;
22417;SDS011;11376;50.932;4.442;2023-06-04T02:25:00;4.77;;;1.43;;
22417;SDS011;11376;50.932;4.442;2023-06-04T02:27:26;5.30;;;1.73;;
22417;SDS011;11376;50.932;4.442;2023-06-04T02:29:51;4.90;;;1.80;;
22417;SDS011;11376;50.932;4.442;2023-06-04T02:32:17;5.53;;;1.50;;
22417;SDS011;11376;50.932;4.442;2023-06-04T02:34:43;7.17;;;1.47;;
22417;SDS011;11376;50.932;4.442;2023-06-04T02:37:09;4.40;;;1.60;;
22417;SDS011;11376;50.932;4.442;2023-06-04T02:39:35;5.53;;;1.50;;
22417;SDS011;11376;50.932;4.442;2023-06-04T02:42:01;4.93;;;1.60;;
22417;SDS011;11376;50.932;4.442;2023-06-04T02:44:26;5.80;;;1.60;;
22417;SDS011;11376;50.932;4.442;2023-06-04T02:46:54;5.03;;;1.67;;
22417;SDS011;11376;50.932;4.442;2023-06-04T02:49:20;5.67;;;1.53;;
22417;SDS011;11376;50.932;4.442;2023-06-04T02:51:46;4.47;;;1.57;;
22417;SDS011;11376;50.932;4.442;2023-06-04T02:54:12;5.17;;;1.70;;
22417;SDS011;11376;50.932;4.442;2023-06-04T02:56:38;3.53;;;1.40;;
22417;SDS011;11376;50.932;4.442;2023-06-04T02:59:04;2.97;;;1.40;;
22417;SDS011;11376;50.932;4.442;2023-06-04T03:01:30;6.40;;;1.60;;
22417;SDS011;11376;50.932;4.442;2023-06-04T03:03:56;2.83;;;1.37;;
22417;SDS011;11376;50.932;4.442;2023-06-04T03:06:22;3.20;;;1.50;;
22417;SDS011;11376;50.932;4.442;2023-06-04T03:08:48;4.77;;;1.80;;
22417;SDS011;11376;50.932;4.442;2023-06-04T03:11:15;7.30;;;1.77;;
22417;SDS011;11376;50.932;4.442;2023-06-04T03:13:42;6.13;;;1.90;;
22417;SDS011;11376;50.932;4.442;2023-06-04T03:16:08;7.07;;;1.90;;
22417;SDS011;11376;50.932;4.442;2023-06-04T03:18:41;6.67;;;1.80;;
22417;SDS011;11376;50.932;4.442;2023-06-04T03:21:08;4.03;;;1.30;;
22417;SDS011;11376;50.932;4.442;2023-06-04T03:23:34;6.33;;;1.57;;
22417;SDS011;11376;50.932;4.442;2023-06-04T03:26:03;3.33;;;1.50;;
22417;SDS011;11376;50.932;4.442;2023-06-04T03:28:30;8.70;;;1.70;;
22417;SDS011;11376;50.932;4.442;2023-06-04T03:30:57;5.57;;;1.63;;
22417;SDS011;11376;50.932;4.442;2023-06-04T03:33:23;4.60;;;1.80;;
22417;SDS011;11376;50.932;4.442;2023-06-04T03:35:50;5.07;;;1.70;;
22417;SDS011;11376;50.932;4.442;2023-06-04T03:38:17;7.33;;;1.67;;
22417;SDS011;11376;50.932;4.442;2023-06-04T03:40:43;5.77;;;1.70;;
22417;SDS011;11376;50.932;4.442;2023-06-04T03:43:10;4.00;;;1.90;;
22417;SDS011;11376;50.932;4.442;2023-06-04T03:45:35;7.67;;;1.63;;
22417;SDS011;11376;50.932;4.442;2023-06-04T03:48:01;4.67;;;1.80;;
22417;SDS011;11376;50.932;4.442;2023-06-04T03:50:27;6.03;;;1.60;;
22417;SDS011;11376;50.932;4.442;2023-06-04T03:52:53;3.90;;;1.53;;
22417;SDS011;11376;50.932;4.442;2023-06-04T03:55:18;5.03;;;1.70;;
22417;SDS011;11376;50.932;4.442;2023-06-04T03:57:44;5.67;;;1.40;;
22417;SDS011;11376;50.932;4.442;2023-06-04T04:00:10;6.17;;;1.90;;
22417;SDS011;11376;50.932;4.442;2023-06-04T04:02:40;4.07;;;1.57;;
22417;SDS011;11376;50.932;4.442;2023-06-04T04:05:07;4.47;;;1.60;;
22417;SDS011;11376;50.932;4.442;2023-06-04T04:07:33;5.03;;;1.60;;
22417;SDS011;11376;50.932;4.442;2023-06-04T04:09:58;4.83;;;1.77;;
22417;SDS011;11376;50.932;4.442;2023-06-04T04:12:24;5.60;;;1.60;;
22417;SDS011;11376;50.932;4.442;2023-06-04T04:14:50;5.13;;;1.50;;
22417;SDS011;11376;50.932;4.442;2023-06-04T04:17:15;6.40;;;1.80;;
22417;SDS011;11376;50.932;4.442;2023-06-04T04:19:41;5.87;;;1.90;;
22417;SDS011;11376;50.932;4.442;2023-06-04T04:22:07;4.37;;;1.90;;
22417;SDS011;11376;50.932;4.442;2023-06-04T04:24:34;4.50;;;1.63;;
22417;SDS011;11376;50.932;4.442;2023-06-04T04:27:02;7.93;;;1.83;;
22417;SDS011;11376;50.932;4.442;2023-06-04T04:29:29;4.13;;;1.67;;
22417;SDS011;11376;50.932;4.442;2023-06-04T04:31:58;6.20;;;1.80;;
22417;SDS011;11376;50.932;4.442;2023-06-04T04:34:36;10.23;;;1.93;;
22417;SDS011;11376;50.932;4.442;2023-06-04T04:37:07;8.30;;;2.00;;
22417;SDS011;11376;50.932;4.442;2023-06-04T04:39:35;6.57;;;1.90;;
22417;SDS011;11376;50.932;4.442;2023-06-04T04:42:01;7.17;;;1.93;;
22417;SDS011;11376;50.932;4.442;2023-06-04T04:44:27;7.20;;;1.93;;
22417;SDS011;11376;50.932;4.442;2023-06-04T04:46:53;5.33;;;1.83;;
22417;SDS011;11376;50.932;4.442;2023-06-04T04:49:19;5.33;;;1.90;;
22417;SDS011;11376;50.932;4.442;2023-06-04T04:51:44;11.37;;;2.50;;
22417;SDS011;11376;50.932;4.442;2023-06-04T04:54:10;8.83;;;2.10;;
22417;SDS011;11376;50.932;4.442;2023-06-04T04:56:36;5.87;;;1.80;;
22417;SDS011;11376;50.932;4.442;2023-06-04T04:59:02;3.77;;;1.90;;
22417;SDS011;11376;50.932;4.442;2023-06-04T05:01:27;4.57;;;1.70;;
22417;SDS011;11376;50.932;4.442;2023-06-04T05:03:53;5.20;;;1.80;;
22417;SDS011;11376;50.932;4.442;2023-06-04T05:06:19;8.17;;;1.90;;
22417;SDS011;11376;50.932;4.442;2023-06-04T05:08:45;5.87;;;1.90;;
22417;SDS011;11376;50.932;4.442;2023-06-04T05:11:11;6.07;;;1.80;;
22417;SDS011;11376;50.932;4.442;2023-06-04T05:13:37;4.07;;;1.90;;
22417;SDS011;11376;50.932;4.442;2023-06-04T05:16:02;5.50;;;1.97;;
22417;SDS011;11376;50.932;4.442;2023-06-04T05:18:34;8.03;;;1.97;;
22417;SDS011;11376;50.932;4.442;2023-06-04T05:21:05;4.63;;;1.97;;
22417;SDS011;11376;50.932;4.442;2023-06-04T05:23:32;5.80;;;1.83;;
22417;SDS011;11376;50.932;4.442;2023-06-04T05:26:02;4.87;;;1.90;;
22417;SDS011;11376;50.932;4.442;2023-06-04T05:28:28;4.13;;;1.80;;
22417;SDS011;11376;50.932;4.442;2023-06-04T05:30:54;10.43;;;2.17;;
22417;SDS011;11376;50.932;4.442;2023-06-04T05:33:27;5.47;;;2.30;;
22417;SDS011;11376;50.932;4.442;2023-06-04T05:35:55;4.57;;;1.97;;
22417;SDS011;11376;50.932;4.442;2023-06-04T05:38:23;4.87;;;2.00;;
22417;SDS011;11376;50.932;4.442;2023-06-04T05:40:51;5.73;;;1.90;;
22417;SDS011;11376;50.932;4.442;2023-06-04T05:43:17;5.47;;;1.93;;
22417;SDS011;11376;50.932;4.442;2023-06-04T05:45:43;3.40;;;1.80;;
22417;SDS011;11376;50.932;4.442;2023-06-04T05:48:09;5.97;;;2.30;;
22417;SDS011;11376;50.932;4.442;2023-06-04T05:50:34;3.97;;;1.77;;
22417;SDS011;11376;50.932;4.442;2023-06-04T05:53:00;4.77;;;1.77;;
22417;SDS011;11376;50.932;4.442;2023-06-04T05:55:26;6.80;;;2.20;;
22417;SDS011;11376;50.932;4.442;2023-06-04T05:57:53;4.83;;;2.07;;
22417;SDS011;11376;50.932;4.442;2023-06-04T06:00:19;4.38;;;1.80;;
22417;SDS011;11376;50.932;4.442;2023-06-04T06:02:45;8.07;;;1.93;;
22417;SDS011;11376;50.932;4.442;2023-06-04T06:05:14;3.75;;;1.75;;
22417;SDS011;11376;50.932;4.442;2023-06-04T06:07:40;5.95;;;1.90;;
22417;SDS011;11376;50.932;4.442;2023-06-04T06:10:06;6.15;;;1.75;;
22417;SDS011;11376;50.932;4.442;2023-06-04T06:12:32;3.80;;;1.83;;
22417;SDS011;11376;50.932;4.442;2023-06-04T06:14:58;7.47;;;1.83;;
22417;SDS011;11376;50.932;4.442;2023-06-04T06:17:23;4.53;;;1.42;;
22417;SDS011;11376;50.932;4.442;2023-06-04T06:19:51;5.80;;;2.00;;
22417;SDS011;11376;50.932;4.442;2023-06-04T06:22:17;5.65;;;1.90;;
22417;SDS011;11376;50.932;4.442;2023-06-04T06:24:43;4.05;;;1.73;;
22417;SDS011;11376;50.932;4.442;2023-06-04T06:27:09;5.35;;;2.13;;
22417;SDS011;11376;50.932;4.442;2023-06-04T06:29:35;6.07;;;1.90;;
22417;SDS011;11376;50.932;4.442;2023-06-04T06:32:02;4.20;;;1.70;;
22417;SDS011;11376;50.932;4.442;2023-06-04T06:34:28;5.20;;;1.80;;
22417;SDS011;11376;50.932;4.442;2023-06-04T06:36:53;7.38;;;1.95;;
22417;SDS011;11376;50.932;4.442;2023-06-04T06:39:19;4.60;;;1.77;;
22417;SDS011;11376;50.932;4.442;2023-06-04T06:41:45;5.30;;;1.92;;
22417;SDS011;11376;50.932;4.442;2023-06-04T06:44:11;3.05;;;1.45;;
22417;SDS011;11376;50.932;4.442;2023-06-04T06:46:37;4.75;;;1.70;;
22417;SDS011;11376;50.932;4.442;2023-06-04T06:49:02;4.80;;;1.90;;
22417;SDS011;11376;50.932;4.442;2023-06-04T06:51:28;3.53;;;1.80;;
22417;SDS011;11376;50.932;4.442;2023-06-04T06:53:54;3.58;;;1.48;;
22417;SDS011;11376;50.932;4.442;2023-06-04T06:56:20;3.95;;;1.60;;
22417;SDS011;11376;50.932;4.442;2023-06-04T06:58:45;4.18;;;2.10;;
22417;SDS011;11376;50.932;4.442;2023-06-04T07:01:12;4.82;;;1.80;;
22417;SDS011;11376;50.932;4.442;2023-06-04T07:03:38;6.05;;;1.90;;
22417;SDS011;11376;50.932;4.442;2023-06-04T07:06:04;8.52;;;1.80;;
22417;SDS011;11376;50.932;4.442;2023-06-04T07:08:31;4.30;;;1.75;;
22417;SDS011;11376;50.932;4.442;2023-06-04T07:10:57;3.67;;;1.55;;
22417;SDS011;11376;50.932;4.442;2023-06-04T07:13:24;5.00;;;1.85;;
22417;SDS011;11376;50.932;4.442;2023-06-04T07:15:49;4.40;;;1.80;;
22417;SDS011;11376;50.932;4.442;2023-06-04T07:18:15;3.10;;;1.60;;
22417;SDS011;11376;50.932;4.442;2023-06-04T07:20:41;4.20;;;1.50;;
22417;SDS011;11376;50.932;4.442;2023-06-04T07:23:07;5.65;;;1.63;;
22417;SDS011;11376;50.932;4.442;2023-06-04T07:25:33;6.22;;;1.52;;
22417;SDS011;11376;50.932;4.442;2023-06-04T07:27:59;4.03;;;1.60;;
22417;SDS011;11376;50.932;4.442;2023-06-04T07:30:27;2.45;;;1.42;;
22417;SDS011;11376;50.932;4.442;2023-06-04T07:32:53;4.65;;;1.42;;
22417;SDS011;11376;50.932;4.442;2023-06-04T07:35:18;5.55;;;1.60;;
22417;SDS011;11376;50.932;4.442;2023-06-04T07:40:54;5.30;;;1.42;;
22417;SDS011;11376;50.932;4.442;2023-06-04T07:43:19;2.72;;;1.20;;
22417;SDS011;11376;50.932;4.442;2023-06-04T07:45:45;3.28;;;1.10;;
22417;SDS011;11376;50.932;4.442;2023-06-04T07:48:10;2.50;;;1.20;;
22417;SDS011;11376;50.932;4.442;2023-06-04T07:50:36;3.35;;;1.33;;
22417;SDS011;11376;50.932;4.442;2023-06-04T07:53:02;5.50;;;1.27;;
22417;SDS011;11376;50.932;4.442;2023-06-04T07:55:28;3.80;;;1.67;;
22417;SDS011;11376;50.932;4.442;2023-06-04T07:57:53;3.92;;;1.33;;
22417;SDS011;11376;50.932;4.442;2023-06-04T08:00:19;3.50;;;1.33;;
22417;SDS011;11376;50.932;4.442;2023-06-04T08:02:45;3.00;;;1.50;;
22417;SDS011;11376;50.932;4.442;2023-06-04T08:05:11;6.18;;;1.40;;
22417;SDS011;11376;50.932;4.442;2023-06-04T08:07:38;4.88;;;1.00;;
22417;SDS011;11376;50.932;4.442;2023-06-04T08:10:05;3.25;;;0.90;;
22417;SDS011;11376;50.932;4.442;2023-06-04T08:12:31;3.88;;;1.10;;
22417;SDS011;11376;50.932;4.442;2023-06-04T08:14:57;3.03;;;1.20;;
22417;SDS011;11376;50.932;4.442;2023-06-04T08:17:23;4.90;;;1.00;;
22417;SDS011;11376;50.932;4.442;2023-06-04T08:19:49;5.78;;;1.20;;
22417;SDS011;11376;50.932;4.442;2023-06-04T08:22:15;4.63;;;1.40;;
22417;SDS011;11376;50.932;4.442;2023-06-04T08:24:40;4.40;;;1.42;;
22417;SDS011;11376;50.932;4.442;2023-06-04T08:27:06;6.22;;;1.40;;
22417;SDS011;11376;50.932;4.442;2023-06-04T08:29:33;4.20;;;1.38;;
22417;SDS011;11376;50.932;4.442;2023-06-04T08:32:00;6.38;;;1.13;;
22417;SDS011;11376;50.932;4.442;2023-06-04T08:34:27;4.10;;;1.00;;
22417;SDS011;11376;50.932;4.442;2023-06-04T08:36:53;3.05;;;1.20;;
22417;SDS011;11376;50.932;4.442;2023-06-04T08:39:18;3.53;;;1.15;;
22417;SDS011;11376;50.932;4.442;2023-06-04T08:41:46;4.20;;;0.93;;
22417;SDS011;11376;50.932;4.442;2023-06-04T08:44:16;4.65;;;1.17;;
22417;SDS011;11376;50.932;4.442;2023-06-04T08:46:42;3.50;;;1.00;;
22417;SDS011;11376;50.932;4.442;2023-06-04T08:49:09;3.03;;;1.10;;
22417;SDS011;11376;50.932;4.442;2023-06-04T08:51:38;2.95;;;1.00;;
22417;SDS011;11376;50.932;4.442;2023-06-04T08:54:07;3.28;;;1.10;;
22417;SDS011;11376;50.932;4.442;2023-06-04T08:56:34;1.95;;;0.80;;
22417;SDS011;11376;50.932;4.442;2023-06-04T08:59:03;4.22;;;1.20;;
22417;SDS011;11376;50.932;4.442;2023-06-04T09:01:32;4.38;;;1.17;;
22417;SDS011;11376;50.932;4.442;2023-06-04T09:04:00;3.13;;;1.08;;
22417;SDS011;11376;50.932;4.442;2023-06-04T09:06:29;4.47;;;1.00;;
22417;SDS011;11376;50.932;4.442;2023-06-04T09:08:57;4.18;;;1.30;;
22417;SDS011;11376;50.932;4.442;2023-06-04T09:11:49;5.97;;;0.98;;
22417;SDS011;11376;50.932;4.442;2023-06-04T09:14:15;3.03;;;0.77;;
22417;SDS011;11376;50.932;4.442;2023-06-04T09:16:48;1.92;;;0.80;;
22417;SDS011;11376;50.932;4.442;2023-06-04T09:19:15;3.22;;;1.15;;
22417;SDS011;11376;50.932;4.442;2023-06-04T09:21:46;4.13;;;1.08;;
22417;SDS011;11376;50.932;4.442;2023-06-04T09:24:11;7.35;;;0.98;;
22417;SDS011;11376;50.932;4.442;2023-06-04T09:26:37;3.45;;;0.98;;
22417;SDS011;11376;50.932;4.442;2023-06-04T09:29:02;5.43;;;0.98;;
22417;SDS011;11376;50.932;4.442;2023-06-04T09:31:31;5.00;;;1.15;;
22417;SDS011;11376;50.932;4.442;2023-06-04T09:34:02;3.45;;;0.82;;
22417;SDS011;11376;50.932;4.442;2023-06-04T09:36:31;3.15;;;1.10;;
22417;SDS011;11376;50.932;4.442;2023-06-04T09:38:58;5.22;;;0.95;;
22417;SDS011;11376;50.932;4.442;2023-06-04T09:41:25;6.57;;;1.52;;
22417;SDS011;11376;50.932;4.442;2023-06-04T09:43:51;4.18;;;0.98;;
22417;SDS011;11376;50.932;4.442;2023-06-04T09:46:28;3.25;;;1.00;;
22417;SDS011;11376;50.932;4.442;2023-06-04T09:49:03;4.28;;;1.08;;
22417;SDS011;11376;50.932;4.442;2023-06-04T09:51:30;5.40;;;1.10;;
22417;SDS011;11376;50.932;4.442;2023-06-04T09:53:57;3.50;;;1.08;;
22417;SDS011;11376;50.932;4.442;2023-06-04T09:56:24;4.50;;;1.10;;
22417;SDS011;11376;50.932;4.442;2023-06-04T09:58:55;3.67;;;1.00;;
22417;SDS011;11376;50.932;4.442;2023-06-04T10:01:28;3.53;;;0.90;;
22417;SDS011;11376;50.932;4.442;2023-06-04T10:03:54;5.80;;;0.93;;
22417;SDS011;11376;50.932;4.442;2023-06-04T10:06:22;4.95;;;0.93;;
22417;SDS011;11376;50.932;4.442;2023-06-04T10:08:50;5.53;;;1.00;;
22417;SDS011;11376;50.932;4.442;2023-06-04T10:11:22;4.28;;;0.95;;
22417;SDS011;11376;50.932;4.442;2023-06-04T10:14:00;3.42;;;1.13;;
22417;SDS011;11376;50.932;4.442;2023-06-04T10:16:44;3.55;;;1.23;;
22417;SDS011;11376;50.932;4.442;2023-06-04T10:19:11;4.47;;;1.10;;
22417;SDS011;11376;50.932;4.442;2023-06-04T10:21:38;4.18;;;1.10;;
22417;SDS011;11376;50.932;4.442;2023-06-04T10:24:03;3.80;;;0.95;;
22417;SDS011;11376;50.932;4.442;2023-06-04T10:26:30;6.00;;;1.10;;
22417;SDS011;11376;50.932;4.442;2023-06-04T10:28:59;3.53;;;1.05;;
22417;SDS011;11376;50.932;4.442;2023-06-04T10:31:27;4.07;;;0.80;;
22417;SDS011;11376;50.932;4.442;2023-06-04T10:33:53;2.92;;;0.90;;
22417;SDS011;11376;50.932;4.442;2023-06-04T10:36:21;3.08;;;1.00;;
22417;SDS011;11376;50.932;4.442;2023-06-04T10:38:51;3.70;;;1.13;;
22417;SDS011;11376;50.932;4.442;2023-06-04T10:41:19;3.45;;;0.75;;
22417;SDS011;11376;50.932;4.442;2023-06-04T10:43:49;5.68;;;1.10;;
22417;SDS011;11376;50.932;4.442;2023-06-04T10:46:17;5.05;;;1.10;;
22417;SDS011;11376;50.932;4.442;2023-06-04T10:48:47;2.63;;;0.90;;
22417;SDS011;11376;50.932;4.442;2023-06-04T10:51:31;3.28;;;1.00;;
22417;SDS011;11376;50.932;4.442;2023-06-04T10:53:58;2.92;;;0.90;;
22417;SDS011;11376;50.932;4.442;2023-06-04T10:56:30;5.50;;;1.20;;
22417;SDS011;11376;50.932;4.442;2023-06-04T10:59:24;5.70;;;1.05;;
22417;SDS011;11376;50.932;4.442;2023-06-04T11:01:49;6.75;;;1.10;;
22417;SDS011;11376;50.932;4.442;2023-06-04T11:04:18;3.55;;;1.00;;
22417;SDS011;11376;50.932;4.442;2023-06-04T11:06:59;4.40;;;1.00;;
22417;SDS011;11376;50.932;4.442;2023-06-04T11:09:29;2.40;;;1.05;;
22417;SDS011;11376;50.932;4.442;2023-06-04T11:11:59;3.72;;;1.20;;
22417;SDS011;11376;50.932;4.442;2023-06-04T11:14:25;3.33;;;1.05;;
22417;SDS011;11376;50.932;4.442;2023-06-04T11:16:51;2.38;;;1.08;;
22417;SDS011;11376;50.932;4.442;2023-06-04T11:19:17;3.17;;;0.90;;
22417;SDS011;11376;50.932;4.442;2023-06-04T11:21:43;4.78;;;1.00;;
22417;SDS011;11376;50.932;4.442;2023-06-04T11:24:11;3.60;;;0.90;;
22417;SDS011;11376;50.932;4.442;2023-06-04T11:26:37;4.32;;;1.10;;
22417;SDS011;11376;50.932;4.442;2023-06-04T11:29:07;5.45;;;1.30;;
22417;SDS011;11376;50.932;4.442;2023-06-04T11:31:46;3.65;;;1.17;;
22417;SDS011;11376;50.932;4.442;2023-06-04T11:34:22;2.90;;;1.13;;
22417;SDS011;11376;50.932;4.442;2023-06-04T11:36:52;2.25;;;1.00;;
22417;SDS011;11376;50.932;4.442;2023-06-04T11:39:21;3.33;;;1.00;;
22417;SDS011;11376;50.932;4.442;2023-06-04T11:41:47;5.00;;;1.08;;
22417;SDS011;11376;50.932;4.442;2023-06-04T11:44:17;3.53;;;1.05;;
22417;SDS011;11376;50.932;4.442;2023-06-04T11:46:44;3.83;;;1.10;;
22417;SDS011;11376;50.932;4.442;2023-06-04T11:49:16;4.40;;;0.98;;
22417;SDS011;11376;50.932;4.442;2023-06-04T11:51:49;5.22;;;1.30;;
22417;SDS011;11376;50.932;4.442;2023-06-04T11:54:16;3.05;;;1.00;;
22417;SDS011;11376;50.932;4.442;2023-06-04T11:56:43;5.00;;;1.10;;
22417;SDS011;11376;50.932;4.442;2023-06-04T11:59:11;5.45;;;1.17;;
22417;SDS011;11376;50.932;4.442;2023-06-04T12:01:41;3.22;;;1.02;;
22417;SDS011;11376;50.932;4.442;2023-06-04T12:04:14;3.95;;;1.20;;
22417;SDS011;11376;50.932;4.442;2023-06-04T12:06:53;5.78;;;1.27;;
22417;SDS011;11376;50.932;4.442;2023-06-04T12:09:25;6.07;;;1.05;;
22417;SDS011;11376;50.932;4.442;2023-06-04T12:12:09;3.17;;;1.00;;
22417;SDS011;11376;50.932;4.442;2023-06-04T12:14:35;3.72;;;1.05;;
22417;SDS011;11376;50.932;4.442;2023-06-04T12:17:01;3.60;;;1.10;;
22417;SDS011;11376;50.932;4.442;2023-06-04T12:19:27;3.08;;;1.02;;
22417;SDS011;11376;50.932;4.442;2023-06-04T12:22:03;3.20;;;1.00;;
22417;SDS011;11376;50.932;4.442;2023-06-04T12:24:32;3.45;;;0.88;;
22417;SDS011;11376;50.932;4.442;2023-06-04T12:27:11;5.50;;;1.30;;
22417;SDS011;11376;50.932;4.442;2023-06-04T12:29:37;3.55;;;1.00;;
22417;SDS011;11376;50.932;4.442;2023-06-04T12:34:30;3.40;;;1.10;;
22417;SDS011;11376;50.932;4.442;2023-06-04T12:36:59;5.13;;;1.30;;
22417;SDS011;11376;50.932;4.442;2023-06-04T12:39:25;3.67;;;1.00;;
22417;SDS011;11376;50.932;4.442;2023-06-04T12:41:51;3.22;;;1.05;;
22417;SDS011;11376;50.932;4.442;2023-06-04T12:44:17;5.65;;;1.08;;
22417;SDS011;11376;50.932;4.442;2023-06-04T12:46:42;3.33;;;1.10;;
22417;SDS011;11376;50.932;4.442;2023-06-04T12:49:08;4.80;;;1.20;;
22417;SDS011;11376;50.932;4.442;2023-06-04T12:51:34;3.08;;;1.00;;
22417;SDS011;11376;50.932;4.442;2023-06-04T12:54:01;4.35;;;1.35;;
22417;SDS011;11376;50.932;4.442;2023-06-04T12:56:27;18.17;;;3.60;;
22417;SDS011;11376;50.932;4.442;2023-06-04T12:58:52;2.83;;;1.20;;
22417;SDS011;11376;50.932;4.442;2023-06-04T13:01:18;2.47;;;1.10;;
22417;SDS011;11376;50.932;4.442;2023-06-04T13:03:44;2.85;;;1.10;;
22417;SDS011;11376;50.932;4.442;2023-06-04T13:06:10;3.85;;;1.40;;
22417;SDS011;11376;50.932;4.442;2023-06-04T13:08:36;5.60;;;1.30;;
22417;SDS011;11376;50.932;4.442;2023-06-04T13:11:02;5.22;;;1.20;;
22417;SDS011;11376;50.932;4.442;2023-06-04T13:13:28;7.28;;;1.15;;
22417;SDS011;11376;50.932;4.442;2023-06-04T13:15:54;3.25;;;1.10;;
22417;SDS011;11376;50.932;4.442;2023-06-04T13:18:20;4.70;;;1.15;;
22417;SDS011;11376;50.932;4.442;2023-06-04T13:20:46;3.83;;;1.20;;
22417;SDS011;11376;50.932;4.442;2023-06-04T13:23:13;7.57;;;1.20;;
22417;SDS011;11376;50.932;4.442;2023-06-04T13:25:40;5.88;;;1.05;;
22417;SDS011;11376;50.932;4.442;2023-06-04T13:28:05;3.72;;;0.90;;
22417;SDS011;11376;50.932;4.442;2023-06-04T13:30:33;3.67;;;1.23;;
22417;SDS011;11376;50.932;4.442;2023-06-04T13:33:04;10.90;;;1.60;;
22417;SDS011;11376;50.932;4.442;2023-06-04T13:35:31;9.40;;;1.40;;
22417;SDS011;11376;50.932;4.442;2023-06-04T13:37:56;3.30;;;0.98;;
22417;SDS011;11376;50.932;4.442;2023-06-04T13:40:22;12.48;;;1.60;;
22417;SDS011;11376;50.932;4.442;2023-06-04T13:42:48;3.90;;;1.10;;
22417;SDS011;11376;50.932;4.442;2023-06-04T13:45:14;4.15;;;1.10;;
22417;SDS011;11376;50.932;4.442;2023-06-04T13:47:41;2.80;;;0.90;;
22417;SDS011;11376;50.932;4.442;2023-06-04T13:50:07;2.45;;;1.00;;
22417;SDS011;11376;50.932;4.442;2023-06-04T13:52:34;4.90;;;1.30;;
22417;SDS011;11376;50.932;4.442;2023-06-04T13:54:59;1.45;;;0.93;;
22417;SDS011;11376;50.932;4.442;2023-06-04T13:57:25;3.80;;;1.00;;
22417;SDS011;11376;50.932;4.442;2023-06-04T13:59:52;4.97;;;1.27;;
22417;SDS011;11376;50.932;4.442;2023-06-04T14:02:18;6.38;;;1.30;;
22417;SDS011;11376;50.932;4.442;2023-06-04T14:04:44;3.42;;;1.23;;
22417;SDS011;11376;50.932;4.442;2023-06-04T14:07:09;2.47;;;1.00;;
22417;SDS011;11376;50.932;4.442;2023-06-04T14:09:35;3.67;;;1.38;;
22417;SDS011;11376;50.932;4.442;2023-06-04T14:12:04;6.20;;;1.40;;
22417;SDS011;11376;50.932;4.442;2023-06-04T14:14:30;2.20;;;1.25;;
22417;SDS011;11376;50.932;4.442;2023-06-04T14:17:01;2.78;;;1.05;;
22417;SDS011;11376;50.932;4.442;2023-06-04T14:19:31;3.05;;;1.38;;
22417;SDS011;11376;50.932;4.442;2023-06-04T14:21:57;2.40;;;1.20;;
22417;SDS011;11376;50.932;4.442;2023-06-04T14:24:23;2.25;;;1.10;;
22417;SDS011;11376;50.932;4.442;2023-06-04T14:26:49;2.65;;;1.10;;
22417;SDS011;11376;50.932;4.442;2023-06-04T14:29:14;6.15;;;1.30;;
22417;SDS011;11376;50.932;4.442;2023-06-04T14:31:40;3.55;;;1.15;;
22417;SDS011;11376;50.932;4.442;2023-06-04T14:34:06;3.50;;;1.30;;
22417;SDS011;11376;50.932;4.442;2023-06-04T14:36:33;5.97;;;1.30;;
22417;SDS011;11376;50.932;4.442;2023-06-04T14:38:59;9.25;;;1.83;;
22417;SDS011;11376;50.932;4.442;2023-06-04T14:41:25;13.20;;;2.30;;
22417;SDS011;11376;50.932;4.442;2023-06-04T14:43:52;14.07;;;2.08;;
22417;SDS011;11376;50.932;4.442;2023-06-04T14:46:17;10.68;;;2.60;;
22417;SDS011;11376;50.932;4.442;2023-06-04T14:48:43;14.52;;;2.92;;
22417;SDS011;11376;50.932;4.442;2023-06-04T14:51:09;5.82;;;1.80;;
22417;SDS011;11376;50.932;4.442;2023-06-04T14:53:35;26.42;;;3.00;;
22417;SDS011;11376;50.932;4.442;2023-06-04T14:56:04;3.95;;;1.20;;
22417;SDS011;11376;50.932;4.442;2023-06-04T14:58:30;1.73;;;0.90;;
22417;SDS011;11376;50.932;4.442;2023-06-04T15:00:56;5.50;;;1.10;;
22417;SDS011;11376;50.932;4.442;2023-06-04T15:03:23;2.45;;;1.00;;